sensor_id;sensor_type;location;lat;lon;timestamp;P1;durP1;ratioP1;P2;durP2;ratioP2
19521;SDS011;9905;52.126;5.596;2022-11-23T00:01:19;27.67;;;25.60;;
19521;SDS011;9905;52.126;5.596;2022-11-23T00:03:48;28.65;;;26.50;;
19521;SDS011;9905;52.126;5.596;2022-11-23T00:06:16;29.42;;;27.13;;
19521;SDS011;9905;52.126;5.596;2022-11-23T00:08:44;26.00;;;24.33;;
19521;SDS011;9905;52.126;5.596;2022-11-23T00:11:12;28.65;;;26.65;;
19521;SDS011;9905;52.126;5.596;2022-11-23T00:13:39;27.55;;;25.63;;
19521;SDS011;9905;52.126;5.596;2022-11-23T00:16:06;29.80;;;27.55;;
19521;SDS011;9905;52.126;5.596;2022-11-23T00:18:34;29.60;;;27.35;;
19521;SDS011;9905;52.126;5.596;2022-11-23T00:21:04;30.75;;;28.33;;
19521;SDS011;9905;52.126;5.596;2022-11-23T00:23:32;29.80;;;27.90;;
19521;SDS011;9905;52.126;5.596;2022-11-23T00:25:58;29.45;;;26.92;;
19521;SDS011;9905;52.126;5.596;2022-11-23T00:28:26;31.13;;;29.02;;
19521;SDS011;9905;52.126;5.596;2022-11-23T00:30:53;29.45;;;27.20;;
19521;SDS011;9905;52.126;5.596;2022-11-23T00:33:20;32.45;;;30.08;;
19521;SDS011;9905;52.126;5.596;2022-11-23T00:35:47;29.48;;;27.50;;
19521;SDS011;9905;52.126;5.596;2022-11-23T00:38:13;31.42;;;28.92;;
19521;SDS011;9905;52.126;5.596;2022-11-23T00:40:40;29.67;;;27.85;;
19521;SDS011;9905;52.126;5.596;2022-11-23T00:43:07;28.92;;;26.98;;
19521;SDS011;9905;52.126;5.596;2022-11-23T00:45:35;30.02;;;27.58;;
19521;SDS011;9905;52.126;5.596;2022-11-23T00:48:01;31.58;;;29.05;;
19521;SDS011;9905;52.126;5.596;2022-11-23T00:50:28;29.70;;;27.50;;
19521;SDS011;9905;52.126;5.596;2022-11-23T00:52:55;30.70;;;28.48;;
19521;SDS011;9905;52.126;5.596;2022-11-23T00:55:22;31.50;;;29.10;;
19521;SDS011;9905;52.126;5.596;2022-11-23T00:57:48;33.50;;;30.77;;
19521;SDS011;9905;52.126;5.596;2022-11-23T01:00:15;31.77;;;29.13;;
19521;SDS011;9905;52.126;5.596;2022-11-23T01:02:44;33.38;;;30.50;;
19521;SDS011;9905;52.126;5.596;2022-11-23T01:05:10;31.13;;;28.73;;
19521;SDS011;9905;52.126;5.596;2022-11-23T01:07:37;33.15;;;30.67;;
19521;SDS011;9905;52.126;5.596;2022-11-23T01:10:04;34.53;;;31.73;;
19521;SDS011;9905;52.126;5.596;2022-11-23T01:12:32;32.28;;;29.67;;
19521;SDS011;9905;52.126;5.596;2022-11-23T01:14:59;34.25;;;30.98;;
19521;SDS011;9905;52.126;5.596;2022-11-23T01:17:25;33.50;;;30.42;;
19521;SDS011;9905;52.126;5.596;2022-11-23T01:19:54;31.02;;;28.30;;
19521;SDS011;9905;52.126;5.596;2022-11-23T01:22:20;31.85;;;29.25;;
19521;SDS011;9905;52.126;5.596;2022-11-23T01:24:48;33.22;;;30.35;;
19521;SDS011;9905;52.126;5.596;2022-11-23T01:27:15;31.27;;;28.80;;
19521;SDS011;9905;52.126;5.596;2022-11-23T01:29:42;29.67;;;27.00;;
19521;SDS011;9905;52.126;5.596;2022-11-23T01:32:08;30.80;;;28.42;;
19521;SDS011;9905;52.126;5.596;2022-11-23T01:34:35;30.20;;;27.83;;
19521;SDS011;9905;52.126;5.596;2022-11-23T01:37:03;31.63;;;29.25;;
19521;SDS011;9905;52.126;5.596;2022-11-23T01:39:30;30.25;;;27.95;;
19521;SDS011;9905;52.126;5.596;2022-11-23T01:41:57;32.40;;;29.63;;
19521;SDS011;9905;52.126;5.596;2022-11-23T01:44:25;32.75;;;30.23;;
19521;SDS011;9905;52.126;5.596;2022-11-23T01:46:53;31.60;;;29.20;;
19521;SDS011;9905;52.126;5.596;2022-11-23T01:49:21;32.38;;;29.73;;
19521;SDS011;9905;52.126;5.596;2022-11-23T01:51:49;31.20;;;28.75;;
19521;SDS011;9905;52.126;5.596;2022-11-23T01:54:21;31.58;;;29.27;;
19521;SDS011;9905;52.126;5.596;2022-11-23T01:56:53;30.83;;;28.23;;
19521;SDS011;9905;52.126;5.596;2022-11-23T01:59:23;30.27;;;27.48;;
19521;SDS011;9905;52.126;5.596;2022-11-23T02:01:51;29.73;;;27.58;;
19521;SDS011;9905;52.126;5.596;2022-11-23T02:04:19;30.40;;;27.70;;
19521;SDS011;9905;52.126;5.596;2022-11-23T02:06:48;27.58;;;25.77;;
19521;SDS011;9905;52.126;5.596;2022-11-23T02:09:17;29.55;;;27.05;;
19521;SDS011;9905;52.126;5.596;2022-11-23T02:11:47;28.23;;;26.02;;
19521;SDS011;9905;52.126;5.596;2022-11-23T02:14:14;28.92;;;26.83;;
19521;SDS011;9905;52.126;5.596;2022-11-23T02:16:41;25.83;;;23.80;;
19521;SDS011;9905;52.126;5.596;2022-11-23T02:19:11;27.23;;;25.13;;
19521;SDS011;9905;52.126;5.596;2022-11-23T02:21:45;26.88;;;24.85;;
19521;SDS011;9905;52.126;5.596;2022-11-23T02:24:13;24.92;;;23.17;;
19521;SDS011;9905;52.126;5.596;2022-11-23T02:26:49;26.20;;;23.70;;
19521;SDS011;9905;52.126;5.596;2022-11-23T02:29:17;26.02;;;24.10;;
19521;SDS011;9905;52.126;5.596;2022-11-23T02:31:46;24.73;;;23.13;;
19521;SDS011;9905;52.126;5.596;2022-11-23T02:34:13;24.67;;;22.70;;
19521;SDS011;9905;52.126;5.596;2022-11-23T02:36:42;26.20;;;24.33;;
19521;SDS011;9905;52.126;5.596;2022-11-23T02:39:12;23.90;;;22.10;;
19521;SDS011;9905;52.126;5.596;2022-11-23T02:41:43;25.00;;;23.33;;
19521;SDS011;9905;52.126;5.596;2022-11-23T02:44:22;24.40;;;22.60;;
19521;SDS011;9905;52.126;5.596;2022-11-23T02:46:57;24.00;;;22.23;;
19521;SDS011;9905;52.126;5.596;2022-11-23T02:49:24;25.20;;;23.25;;
19521;SDS011;9905;52.126;5.596;2022-11-23T02:51:51;24.48;;;22.30;;
19521;SDS011;9905;52.126;5.596;2022-11-23T02:54:18;23.33;;;21.95;;
19521;SDS011;9905;52.126;5.596;2022-11-23T02:56:45;22.67;;;21.15;;
19521;SDS011;9905;52.126;5.596;2022-11-23T02:59:11;23.10;;;21.30;;
19521;SDS011;9905;52.126;5.596;2022-11-23T03:01:39;24.08;;;22.35;;
19521;SDS011;9905;52.126;5.596;2022-11-23T03:04:06;22.83;;;21.23;;
19521;SDS011;9905;52.126;5.596;2022-11-23T03:06:34;21.35;;;19.55;;
19521;SDS011;9905;52.126;5.596;2022-11-23T03:09:01;20.67;;;19.45;;
19521;SDS011;9905;52.126;5.596;2022-11-23T03:11:28;21.42;;;19.80;;
19521;SDS011;9905;52.126;5.596;2022-11-23T03:13:55;20.88;;;19.10;;
19521;SDS011;9905;52.126;5.596;2022-11-23T03:16:21;19.38;;;17.95;;
19521;SDS011;9905;52.126;5.596;2022-11-23T03:18:50;20.08;;;18.45;;
19521;SDS011;9905;52.126;5.596;2022-11-23T03:21:17;20.60;;;19.23;;
19521;SDS011;9905;52.126;5.596;2022-11-23T03:23:44;19.98;;;18.42;;
19521;SDS011;9905;52.126;5.596;2022-11-23T03:26:11;19.75;;;18.27;;
19521;SDS011;9905;52.126;5.596;2022-11-23T03:28:37;19.75;;;18.65;;
19521;SDS011;9905;52.126;5.596;2022-11-23T03:31:04;19.85;;;18.50;;
19521;SDS011;9905;52.126;5.596;2022-11-23T03:33:31;18.88;;;17.83;;
19521;SDS011;9905;52.126;5.596;2022-11-23T03:35:59;17.05;;;15.95;;
19521;SDS011;9905;52.126;5.596;2022-11-23T03:38:26;17.45;;;16.60;;
19521;SDS011;9905;52.126;5.596;2022-11-23T03:40:53;16.42;;;15.52;;
19521;SDS011;9905;52.126;5.596;2022-11-23T03:43:20;17.88;;;16.73;;
19521;SDS011;9905;52.126;5.596;2022-11-23T03:45:46;17.85;;;16.75;;
19521;SDS011;9905;52.126;5.596;2022-11-23T03:48:13;18.00;;;16.80;;
19521;SDS011;9905;52.126;5.596;2022-11-23T03:50:40;16.27;;;15.48;;
19521;SDS011;9905;52.126;5.596;2022-11-23T03:53:08;16.85;;;16.05;;
19521;SDS011;9905;52.126;5.596;2022-11-23T03:55:35;18.20;;;15.73;;
19521;SDS011;9905;52.126;5.596;2022-11-23T03:58:02;16.75;;;15.93;;
19521;SDS011;9905;52.126;5.596;2022-11-23T04:00:29;15.88;;;14.73;;
19521;SDS011;9905;52.126;5.596;2022-11-23T04:02:56;15.70;;;14.85;;
19521;SDS011;9905;52.126;5.596;2022-11-23T04:05:23;15.98;;;15.02;;
19521;SDS011;9905;52.126;5.596;2022-11-23T04:07:51;17.58;;;16.52;;
19521;SDS011;9905;52.126;5.596;2022-11-23T04:10:19;15.05;;;14.25;;
19521;SDS011;9905;52.126;5.596;2022-11-23T04:12:49;15.38;;;14.65;;
19521;SDS011;9905;52.126;5.596;2022-11-23T04:15:16;17.52;;;16.50;;
19521;SDS011;9905;52.126;5.596;2022-11-23T04:17:44;16.77;;;15.35;;
19521;SDS011;9905;52.126;5.596;2022-11-23T04:20:11;15.98;;;14.85;;
19521;SDS011;9905;52.126;5.596;2022-11-23T04:22:38;15.20;;;14.32;;
19521;SDS011;9905;52.126;5.596;2022-11-23T04:25:05;15.38;;;14.15;;
19521;SDS011;9905;52.126;5.596;2022-11-23T04:27:33;16.60;;;15.40;;
19521;SDS011;9905;52.126;5.596;2022-11-23T04:30:00;17.15;;;16.13;;
19521;SDS011;9905;52.126;5.596;2022-11-23T04:32:27;17.55;;;16.55;;
19521;SDS011;9905;52.126;5.596;2022-11-23T04:34:53;17.73;;;16.38;;
19521;SDS011;9905;52.126;5.596;2022-11-23T04:37:20;15.73;;;14.93;;
19521;SDS011;9905;52.126;5.596;2022-11-23T04:39:47;17.50;;;16.60;;
19521;SDS011;9905;52.126;5.596;2022-11-23T04:42:13;16.85;;;15.85;;
19521;SDS011;9905;52.126;5.596;2022-11-23T04:44:41;17.27;;;16.15;;
19521;SDS011;9905;52.126;5.596;2022-11-23T04:47:09;16.73;;;15.52;;
19521;SDS011;9905;52.126;5.596;2022-11-23T04:49:36;16.00;;;14.90;;
19521;SDS011;9905;52.126;5.596;2022-11-23T04:52:03;17.90;;;16.90;;
19521;SDS011;9905;52.126;5.596;2022-11-23T04:54:31;17.00;;;15.90;;
19521;SDS011;9905;52.126;5.596;2022-11-23T04:56:58;17.35;;;16.23;;
19521;SDS011;9905;52.126;5.596;2022-11-23T04:59:25;16.73;;;15.32;;
19521;SDS011;9905;52.126;5.596;2022-11-23T05:01:53;15.85;;;14.85;;
19521;SDS011;9905;52.126;5.596;2022-11-23T05:04:19;15.75;;;15.05;;
19521;SDS011;9905;52.126;5.596;2022-11-23T05:06:46;16.48;;;15.77;;
19521;SDS011;9905;52.126;5.596;2022-11-23T05:09:13;16.80;;;15.65;;
19521;SDS011;9905;52.126;5.596;2022-11-23T05:11:40;17.23;;;16.02;;
19521;SDS011;9905;52.126;5.596;2022-11-23T05:14:06;16.60;;;15.65;;
19521;SDS011;9905;52.126;5.596;2022-11-23T05:16:33;15.63;;;14.85;;
19521;SDS011;9905;52.126;5.596;2022-11-23T05:19:01;16.17;;;15.20;;
19521;SDS011;9905;52.126;5.596;2022-11-23T05:21:28;16.73;;;15.63;;
19521;SDS011;9905;52.126;5.596;2022-11-23T05:23:55;16.20;;;15.07;;
19521;SDS011;9905;52.126;5.596;2022-11-23T05:26:22;17.27;;;16.25;;
19521;SDS011;9905;52.126;5.596;2022-11-23T05:28:48;17.70;;;16.27;;
19521;SDS011;9905;52.126;5.596;2022-11-23T05:31:15;17.73;;;16.20;;
19521;SDS011;9905;52.126;5.596;2022-11-23T05:33:42;16.48;;;15.38;;
19521;SDS011;9905;52.126;5.596;2022-11-23T05:36:10;16.85;;;16.05;;
19521;SDS011;9905;52.126;5.596;2022-11-23T05:38:37;17.38;;;16.27;;
19521;SDS011;9905;52.126;5.596;2022-11-23T05:41:04;17.10;;;16.23;;
19521;SDS011;9905;52.126;5.596;2022-11-23T05:43:31;18.30;;;16.85;;
19521;SDS011;9905;52.126;5.596;2022-11-23T05:45:58;17.83;;;16.92;;
19521;SDS011;9905;52.126;5.596;2022-11-23T05:48:25;16.83;;;15.35;;
19521;SDS011;9905;52.126;5.596;2022-11-23T05:50:52;16.60;;;15.77;;
19521;SDS011;9905;52.126;5.596;2022-11-23T05:53:20;17.02;;;15.80;;
19521;SDS011;9905;52.126;5.596;2022-11-23T05:55:46;18.05;;;17.00;;
19521;SDS011;9905;52.126;5.596;2022-11-23T05:58:13;17.90;;;16.35;;
19521;SDS011;9905;52.126;5.596;2022-11-23T06:00:40;17.42;;;16.23;;
19521;SDS011;9905;52.126;5.596;2022-11-23T06:03:07;16.70;;;15.77;;
19521;SDS011;9905;52.126;5.596;2022-11-23T06:05:33;16.42;;;15.00;;
19521;SDS011;9905;52.126;5.596;2022-11-23T06:08:00;14.45;;;13.00;;
19521;SDS011;9905;52.126;5.596;2022-11-23T06:10:28;16.17;;;14.55;;
19521;SDS011;9905;52.126;5.596;2022-11-23T06:13:00;15.75;;;14.30;;
19521;SDS011;9905;52.126;5.596;2022-11-23T06:15:27;14.95;;;14.15;;
19521;SDS011;9905;52.126;5.596;2022-11-23T06:17:57;14.70;;;13.80;;
19521;SDS011;9905;52.126;5.596;2022-11-23T06:20:25;15.20;;;14.30;;
19521;SDS011;9905;52.126;5.596;2022-11-23T06:22:52;13.70;;;13.00;;
19521;SDS011;9905;52.126;5.596;2022-11-23T06:25:19;14.82;;;13.88;;
19521;SDS011;9905;52.126;5.596;2022-11-23T06:27:52;13.73;;;12.95;;
19521;SDS011;9905;52.126;5.596;2022-11-23T06:30:20;13.52;;;12.85;;
19521;SDS011;9905;52.126;5.596;2022-11-23T06:32:46;13.60;;;12.57;;
19521;SDS011;9905;52.126;5.596;2022-11-23T06:35:13;13.95;;;12.57;;
19521;SDS011;9905;52.126;5.596;2022-11-23T06:37:40;14.70;;;13.63;;
19521;SDS011;9905;52.126;5.596;2022-11-23T06:40:08;12.95;;;12.27;;
19521;SDS011;9905;52.126;5.596;2022-11-23T06:42:36;12.95;;;12.25;;
19521;SDS011;9905;52.126;5.596;2022-11-23T06:45:04;12.23;;;11.18;;
19521;SDS011;9905;52.126;5.596;2022-11-23T06:47:32;13.02;;;12.23;;
19521;SDS011;9905;52.126;5.596;2022-11-23T06:49:58;13.38;;;12.35;;
19521;SDS011;9905;52.126;5.596;2022-11-23T06:52:25;11.90;;;10.90;;
19521;SDS011;9905;52.126;5.596;2022-11-23T06:54:52;13.52;;;12.20;;
19521;SDS011;9905;52.126;5.596;2022-11-23T06:57:19;13.98;;;12.95;;
19521;SDS011;9905;52.126;5.596;2022-11-23T06:59:45;12.80;;;12.00;;
19521;SDS011;9905;52.126;5.596;2022-11-23T07:02:13;12.55;;;11.52;;
19521;SDS011;9905;52.126;5.596;2022-11-23T07:04:40;10.95;;;10.65;;
19521;SDS011;9905;52.126;5.596;2022-11-23T07:07:07;12.65;;;11.35;;
19521;SDS011;9905;52.126;5.596;2022-11-23T07:09:34;12.32;;;11.55;;
19521;SDS011;9905;52.126;5.596;2022-11-23T07:12:02;12.15;;;11.50;;
19521;SDS011;9905;52.126;5.596;2022-11-23T07:14:29;12.95;;;11.90;;
19521;SDS011;9905;52.126;5.596;2022-11-23T07:16:55;11.95;;;11.45;;
19521;SDS011;9905;52.126;5.596;2022-11-23T07:19:23;15.27;;;11.88;;
19521;SDS011;9905;52.126;5.596;2022-11-23T07:21:50;10.98;;;10.20;;
19521;SDS011;9905;52.126;5.596;2022-11-23T07:24:17;12.00;;;10.70;;
19521;SDS011;9905;52.126;5.596;2022-11-23T07:26:43;13.25;;;11.90;;
19521;SDS011;9905;52.126;5.596;2022-11-23T07:29:10;11.65;;;10.80;;
19521;SDS011;9905;52.126;5.596;2022-11-23T07:31:37;10.52;;;10.02;;
19521;SDS011;9905;52.126;5.596;2022-11-23T07:34:04;12.68;;;11.77;;
19521;SDS011;9905;52.126;5.596;2022-11-23T07:36:33;11.98;;;11.20;;
19521;SDS011;9905;52.126;5.596;2022-11-23T07:39:00;11.02;;;10.45;;
19521;SDS011;9905;52.126;5.596;2022-11-23T07:41:27;12.48;;;11.65;;
19521;SDS011;9905;52.126;5.596;2022-11-23T07:43:53;12.02;;;11.07;;
19521;SDS011;9905;52.126;5.596;2022-11-23T07:46:20;16.60;;;11.35;;
19521;SDS011;9905;52.126;5.596;2022-11-23T07:48:47;12.38;;;11.27;;
19521;SDS011;9905;52.126;5.596;2022-11-23T07:51:14;11.73;;;10.88;;
19521;SDS011;9905;52.126;5.596;2022-11-23T07:53:44;11.68;;;10.80;;
19521;SDS011;9905;52.126;5.596;2022-11-23T07:56:11;11.43;;;10.68;;
19521;SDS011;9905;52.126;5.596;2022-11-23T07:58:38;11.00;;;10.30;;
19521;SDS011;9905;52.126;5.596;2022-11-23T08:01:05;12.15;;;11.07;;
19521;SDS011;9905;52.126;5.596;2022-11-23T08:03:31;12.85;;;10.70;;
19521;SDS011;9905;52.126;5.596;2022-11-23T08:05:58;11.73;;;10.65;;
19521;SDS011;9905;52.126;5.596;2022-11-23T08:08:25;12.40;;;11.57;;
19521;SDS011;9905;52.126;5.596;2022-11-23T08:10:53;11.05;;;10.07;;
19521;SDS011;9905;52.126;5.596;2022-11-23T08:13:20;10.80;;;9.77;;
19521;SDS011;9905;52.126;5.596;2022-11-23T08:15:47;11.88;;;10.88;;
19521;SDS011;9905;52.126;5.596;2022-11-23T08:18:14;10.88;;;10.15;;
19521;SDS011;9905;52.126;5.596;2022-11-23T08:20:41;10.20;;;9.38;;
19521;SDS011;9905;52.126;5.596;2022-11-23T08:23:08;11.07;;;10.32;;
19521;SDS011;9905;52.126;5.596;2022-11-23T08:25:35;9.77;;;9.40;;
19521;SDS011;9905;52.126;5.596;2022-11-23T08:28:03;11.82;;;10.82;;
19521;SDS011;9905;52.126;5.596;2022-11-23T08:30:30;11.48;;;10.77;;
19521;SDS011;9905;52.126;5.596;2022-11-23T08:32:57;14.95;;;12.77;;
19521;SDS011;9905;52.126;5.596;2022-11-23T08:35:24;12.38;;;11.50;;
19521;SDS011;9905;52.126;5.596;2022-11-23T08:37:51;13.63;;;11.95;;
19521;SDS011;9905;52.126;5.596;2022-11-23T08:40:18;13.77;;;12.85;;
19521;SDS011;9905;52.126;5.596;2022-11-23T08:42:45;12.23;;;11.63;;
19521;SDS011;9905;52.126;5.596;2022-11-23T08:45:13;12.82;;;11.98;;
19521;SDS011;9905;52.126;5.596;2022-11-23T08:47:39;12.82;;;11.80;;
19521;SDS011;9905;52.126;5.596;2022-11-23T08:50:06;11.98;;;11.02;;
19521;SDS011;9905;52.126;5.596;2022-11-23T08:52:34;12.15;;;11.23;;
19521;SDS011;9905;52.126;5.596;2022-11-23T08:55:00;10.95;;;10.10;;
19521;SDS011;9905;52.126;5.596;2022-11-23T08:57:27;10.65;;;9.68;;
19521;SDS011;9905;52.126;5.596;2022-11-23T08:59:54;12.15;;;10.00;;
19521;SDS011;9905;52.126;5.596;2022-11-23T09:02:22;11.48;;;10.38;;
19521;SDS011;9905;52.126;5.596;2022-11-23T09:04:49;10.23;;;9.35;;
19521;SDS011;9905;52.126;5.596;2022-11-23T09:07:15;10.38;;;9.55;;
19521;SDS011;9905;52.126;5.596;2022-11-23T09:09:42;10.35;;;9.45;;
19521;SDS011;9905;52.126;5.596;2022-11-23T09:12:09;9.18;;;8.32;;
19521;SDS011;9905;52.126;5.596;2022-11-23T09:14:36;9.05;;;8.18;;
19521;SDS011;9905;52.126;5.596;2022-11-23T09:17:02;10.57;;;8.75;;
19521;SDS011;9905;52.126;5.596;2022-11-23T09:19:31;9.52;;;8.68;;
19521;SDS011;9905;52.126;5.596;2022-11-23T09:21:57;8.13;;;7.78;;
19521;SDS011;9905;52.126;5.596;2022-11-23T09:24:25;10.75;;;8.43;;
19521;SDS011;9905;52.126;5.596;2022-11-23T09:26:51;9.13;;;8.07;;
19521;SDS011;9905;52.126;5.596;2022-11-23T09:29:18;8.65;;;8.15;;
19521;SDS011;9905;52.126;5.596;2022-11-23T09:31:45;11.13;;;7.75;;
19521;SDS011;9905;52.126;5.596;2022-11-23T09:34:12;8.18;;;7.35;;
19521;SDS011;9905;52.126;5.596;2022-11-23T09:36:40;7.82;;;6.95;;
19521;SDS011;9905;52.126;5.596;2022-11-23T09:39:07;10.27;;;7.05;;
19521;SDS011;9905;52.126;5.596;2022-11-23T09:41:40;9.98;;;6.88;;
19521;SDS011;9905;52.126;5.596;2022-11-23T09:44:21;6.80;;;6.30;;
19521;SDS011;9905;52.126;5.596;2022-11-23T09:46:55;7.30;;;6.75;;
19521;SDS011;9905;52.126;5.596;2022-11-23T09:49:29;7.00;;;6.38;;
19521;SDS011;9905;52.126;5.596;2022-11-23T09:52:06;7.15;;;6.82;;
19521;SDS011;9905;52.126;5.596;2022-11-23T09:54:39;7.47;;;6.53;;
19521;SDS011;9905;52.126;5.596;2022-11-23T09:57:08;10.15;;;6.75;;
19521;SDS011;9905;52.126;5.596;2022-11-23T09:59:40;6.68;;;6.03;;
19521;SDS011;9905;52.126;5.596;2022-11-23T10:02:16;6.82;;;5.20;;
19521;SDS011;9905;52.126;5.596;2022-11-23T10:04:46;6.85;;;6.10;;
19521;SDS011;9905;52.126;5.596;2022-11-23T10:07:20;10.88;;;6.03;;
19521;SDS011;9905;52.126;5.596;2022-11-23T10:10:07;8.57;;;7.85;;
19521;SDS011;9905;52.126;5.596;2022-11-23T10:12:45;8.10;;;7.30;;
19521;SDS011;9905;52.126;5.596;2022-11-23T10:15:19;10.45;;;6.18;;
19521;SDS011;9905;52.126;5.596;2022-11-23T10:18:02;7.75;;;6.55;;
19521;SDS011;9905;52.126;5.596;2022-11-23T10:20:36;6.85;;;5.15;;
19521;SDS011;9905;52.126;5.596;2022-11-23T10:23:19;8.70;;;5.28;;
19521;SDS011;9905;52.126;5.596;2022-11-23T10:26:06;7.28;;;5.10;;
19521;SDS011;9905;52.126;5.596;2022-11-23T10:28:37;5.78;;;5.28;;
19521;SDS011;9905;52.126;5.596;2022-11-23T10:31:06;6.40;;;5.03;;
19521;SDS011;9905;52.126;5.596;2022-11-23T10:33:38;9.77;;;4.80;;
19521;SDS011;9905;52.126;5.596;2022-11-23T10:36:10;7.60;;;4.63;;
19521;SDS011;9905;52.126;5.596;2022-11-23T10:38:39;5.20;;;4.75;;
19521;SDS011;9905;52.126;5.596;2022-11-23T10:41:08;10.93;;;5.72;;
19521;SDS011;9905;52.126;5.596;2022-11-23T10:43:37;14.65;;;5.25;;
19521;SDS011;9905;52.126;5.596;2022-11-23T10:46:24;7.35;;;4.97;;
19521;SDS011;9905;52.126;5.596;2022-11-23T10:48:55;6.70;;;5.03;;
19521;SDS011;9905;52.126;5.596;2022-11-23T10:51:32;7.68;;;4.93;;
19521;SDS011;9905;52.126;5.596;2022-11-23T10:54:01;5.22;;;4.72;;
19521;SDS011;9905;52.126;5.596;2022-11-23T10:56:30;8.13;;;5.72;;
19521;SDS011;9905;52.126;5.596;2022-11-23T10:58:58;10.88;;;5.78;;
19521;SDS011;9905;52.126;5.596;2022-11-23T11:01:25;5.20;;;4.90;;
19521;SDS011;9905;52.126;5.596;2022-11-23T11:03:54;4.88;;;4.32;;
19521;SDS011;9905;52.126;5.596;2022-11-23T11:06:27;5.15;;;4.35;;
19521;SDS011;9905;52.126;5.596;2022-11-23T11:08:56;6.40;;;4.95;;
19521;SDS011;9905;52.126;5.596;2022-11-23T11:11:25;4.90;;;4.40;;
19521;SDS011;9905;52.126;5.596;2022-11-23T11:14:03;5.78;;;4.30;;
19521;SDS011;9905;52.126;5.596;2022-11-23T11:16:32;5.25;;;4.85;;
19521;SDS011;9905;52.126;5.596;2022-11-23T11:19:09;5.50;;;5.00;;
19521;SDS011;9905;52.126;5.596;2022-11-23T11:21:47;5.43;;;4.90;;
19521;SDS011;9905;52.126;5.596;2022-11-23T11:24:14;5.60;;;5.00;;
19521;SDS011;9905;52.126;5.596;2022-11-23T11:26:48;5.50;;;5.03;;
19521;SDS011;9905;52.126;5.596;2022-11-23T11:29:23;5.65;;;4.22;;
19521;SDS011;9905;52.126;5.596;2022-11-23T11:31:56;7.70;;;4.65;;
19521;SDS011;9905;52.126;5.596;2022-11-23T11:34:27;4.65;;;4.25;;
19521;SDS011;9905;52.126;5.596;2022-11-23T11:36:59;5.97;;;4.55;;
19521;SDS011;9905;52.126;5.596;2022-11-23T11:39:33;4.82;;;4.43;;
19521;SDS011;9905;52.126;5.596;2022-11-23T11:42:15;6.35;;;3.78;;
19521;SDS011;9905;52.126;5.596;2022-11-23T11:44:45;9.02;;;4.85;;
19521;SDS011;9905;52.126;5.596;2022-11-23T11:47:18;4.18;;;3.92;;
19521;SDS011;9905;52.126;5.596;2022-11-23T11:49:51;4.63;;;4.00;;
19521;SDS011;9905;52.126;5.596;2022-11-23T11:52:21;4.53;;;3.55;;
19521;SDS011;9905;52.126;5.596;2022-11-23T11:54:54;3.88;;;3.63;;
19521;SDS011;9905;52.126;5.596;2022-11-23T11:57:28;4.95;;;4.22;;
19521;SDS011;9905;52.126;5.596;2022-11-23T12:00:01;8.75;;;4.65;;
19521;SDS011;9905;52.126;5.596;2022-11-23T12:02:33;4.00;;;3.58;;
19521;SDS011;9905;52.126;5.596;2022-11-23T12:05:06;3.83;;;3.50;;
19521;SDS011;9905;52.126;5.596;2022-11-23T12:07:41;5.28;;;3.90;;
19521;SDS011;9905;52.126;5.596;2022-11-23T12:10:14;5.15;;;4.78;;
19521;SDS011;9905;52.126;5.596;2022-11-23T12:12:46;4.68;;;4.22;;
19521;SDS011;9905;52.126;5.596;2022-11-23T12:15:15;4.55;;;4.13;;
19521;SDS011;9905;52.126;5.596;2022-11-23T12:17:48;3.85;;;3.65;;
19521;SDS011;9905;52.126;5.596;2022-11-23T12:20:37;6.10;;;4.60;;
19521;SDS011;9905;52.126;5.596;2022-11-23T12:23:12;4.20;;;3.90;;
19521;SDS011;9905;52.126;5.596;2022-11-23T12:25:49;6.45;;;3.90;;
19521;SDS011;9905;52.126;5.596;2022-11-23T12:28:31;7.20;;;4.30;;
19521;SDS011;9905;52.126;5.596;2022-11-23T12:31:11;3.70;;;3.38;;
19521;SDS011;9905;52.126;5.596;2022-11-23T12:33:49;7.03;;;3.88;;
19521;SDS011;9905;52.126;5.596;2022-11-23T12:36:36;3.95;;;3.72;;
19521;SDS011;9905;52.126;5.596;2022-11-23T12:39:13;3.63;;;3.33;;
19521;SDS011;9905;52.126;5.596;2022-11-23T12:41:51;4.00;;;3.75;;
19521;SDS011;9905;52.126;5.596;2022-11-23T12:44:28;4.72;;;3.67;;
19521;SDS011;9905;52.126;5.596;2022-11-23T12:47:12;3.35;;;3.25;;
19521;SDS011;9905;52.126;5.596;2022-11-23T12:49:49;3.90;;;3.63;;
19521;SDS011;9905;52.126;5.596;2022-11-23T12:52:24;3.42;;;3.22;;
19521;SDS011;9905;52.126;5.596;2022-11-23T12:55:07;3.08;;;2.97;;
19521;SDS011;9905;52.126;5.596;2022-11-23T12:57:43;3.50;;;3.30;;
19521;SDS011;9905;52.126;5.596;2022-11-23T13:00:16;3.22;;;3.03;;
19521;SDS011;9905;52.126;5.596;2022-11-23T13:02:52;4.13;;;3.55;;
19521;SDS011;9905;52.126;5.596;2022-11-23T13:05:40;3.80;;;3.60;;
19521;SDS011;9905;52.126;5.596;2022-11-23T13:08:28;4.05;;;3.83;;
19521;SDS011;9905;52.126;5.596;2022-11-23T13:11:19;3.55;;;3.35;;
19521;SDS011;9905;52.126;5.596;2022-11-23T13:13:57;3.55;;;3.22;;
19521;SDS011;9905;52.126;5.596;2022-11-23T13:16:43;3.47;;;3.17;;
19521;SDS011;9905;52.126;5.596;2022-11-23T13:19:27;3.78;;;3.38;;
19521;SDS011;9905;52.126;5.596;2022-11-23T13:22:04;3.83;;;3.40;;
19521;SDS011;9905;52.126;5.596;2022-11-23T13:24:36;3.03;;;2.90;;
19521;SDS011;9905;52.126;5.596;2022-11-23T13:30:08;3.00;;;2.90;;
19521;SDS011;9905;52.126;5.596;2022-11-23T13:32:52;3.80;;;3.53;;
19521;SDS011;9905;52.126;5.596;2022-11-23T13:38:17;3.65;;;3.35;;
19521;SDS011;9905;52.126;5.596;2022-11-23T13:41:01;3.22;;;3.13;;
19521;SDS011;9905;52.126;5.596;2022-11-23T13:43:28;5.18;;;3.63;;
19521;SDS011;9905;52.126;5.596;2022-11-23T13:46:11;5.82;;;3.35;;
19521;SDS011;9905;52.126;5.596;2022-11-23T13:48:54;3.47;;;3.28;;
19521;SDS011;9905;52.126;5.596;2022-11-23T13:51:24;3.90;;;3.60;;
19521;SDS011;9905;52.126;5.596;2022-11-23T13:53:56;4.25;;;3.33;;
19521;SDS011;9905;52.126;5.596;2022-11-23T13:56:30;3.53;;;3.30;;
19521;SDS011;9905;52.126;5.596;2022-11-23T13:59:18;4.20;;;2.95;;
19521;SDS011;9905;52.126;5.596;2022-11-23T14:01:58;3.83;;;3.20;;
19521;SDS011;9905;52.126;5.596;2022-11-23T14:04:28;3.28;;;3.13;;
19521;SDS011;9905;52.126;5.596;2022-11-23T14:06:56;3.60;;;3.42;;
19521;SDS011;9905;52.126;5.596;2022-11-23T14:09:28;4.38;;;4.07;;
19521;SDS011;9905;52.126;5.596;2022-11-23T14:12:11;5.55;;;3.30;;
19521;SDS011;9905;52.126;5.596;2022-11-23T14:14:46;3.85;;;3.55;;
19521;SDS011;9905;52.126;5.596;2022-11-23T14:17:36;5.07;;;3.53;;
19521;SDS011;9905;52.126;5.596;2022-11-23T14:20:33;3.80;;;3.50;;
19521;SDS011;9905;52.126;5.596;2022-11-23T14:23:16;4.93;;;4.68;;
19521;SDS011;9905;52.126;5.596;2022-11-23T14:26:09;5.97;;;5.00;;
19521;SDS011;9905;52.126;5.596;2022-11-23T14:28:44;5.65;;;5.20;;
19521;SDS011;9905;52.126;5.596;2022-11-23T14:31:21;5.28;;;5.03;;
19521;SDS011;9905;52.126;5.596;2022-11-23T14:33:58;5.82;;;5.63;;
19521;SDS011;9905;52.126;5.596;2022-11-23T14:36:34;6.65;;;6.15;;
19521;SDS011;9905;52.126;5.596;2022-11-23T14:39:18;6.90;;;6.60;;
19521;SDS011;9905;52.126;5.596;2022-11-23T14:42:09;6.90;;;6.60;;
19521;SDS011;9905;52.126;5.596;2022-11-23T14:44:39;7.47;;;7.13;;
19521;SDS011;9905;52.126;5.596;2022-11-23T14:47:07;7.22;;;6.68;;
19521;SDS011;9905;52.126;5.596;2022-11-23T14:49:35;7.55;;;7.30;;
19521;SDS011;9905;52.126;5.596;2022-11-23T14:52:04;8.18;;;7.70;;
19521;SDS011;9905;52.126;5.596;2022-11-23T14:54:31;9.10;;;8.35;;
19521;SDS011;9905;52.126;5.596;2022-11-23T14:56:58;9.18;;;8.48;;
19521;SDS011;9905;52.126;5.596;2022-11-23T14:59:28;8.45;;;8.15;;
19521;SDS011;9905;52.126;5.596;2022-11-23T15:01:57;9.23;;;8.73;;
19521;SDS011;9905;52.126;5.596;2022-11-23T15:04:27;11.05;;;10.43;;
19521;SDS011;9905;52.126;5.596;2022-11-23T15:06:59;8.68;;;8.27;;
19521;SDS011;9905;52.126;5.596;2022-11-23T15:09:39;8.60;;;8.25;;